Time;durP1;ratioP1;P1;durP2;ratioP2;P2;SDS_P1;SDS_P2;PMS_P1;PMS_P2;Temp;Humidity;BMP_temperature;BMP_pressure;BME280_temperature;BME280_humidity;BME280_pressure;Samples;Min_cycle;Max_cycle;Signal;HPM_P1;HPM_P2
2022/12/08 00:01:27;;;;;;;2.73;2.53;;;19.20;39.30;;;;;;4976175;28;20898;-63
2022/12/08 00:03:54;;;;;;;2.10;2.00;;;19.20;39.40;;;;;;4993262;28;20435;-63
2022/12/08 00:09:24;;;;;;;2.47;2.37;;;19.20;39.30;;;;;;4987267;28;20500;-63
2022/12/08 00:11:58;;;;;;;2.43;2.23;;;19.20;39.40;;;;;;4978969;28;20532;-64
2022/12/08 00:14:33;;;;;;;2.80;2.60;;;19.20;39.40;;;;;;4977643;28;20445;-63
2022/12/08 00:17:00;;;;;;;2.33;2.23;;;19.20;39.30;;;;;;4978404;28;20462;-63
2022/12/08 00:19:26;;;;;;;2.30;2.20;;;19.10;39.30;;;;;;4982916;28;20457;-63
2022/12/08 00:21:52;;;;;;;2.23;2.13;;;19.20;39.40;;;;;;4978305;28;20514;-63
2022/12/08 00:24:19;;;;;;;2.03;1.93;;;19.20;39.30;;;;;;4989782;28;20436;-63
2022/12/08 00:26:45;;;;;;;2.40;2.30;;;19.20;39.30;;;;;;4978552;28;20885;-63
2022/12/08 00:29:11;;;;;;;2.50;2.40;;;19.20;39.30;;;;;;4981615;28;20512;-63
2022/12/08 00:31:37;;;;;;;2.63;2.53;;;19.20;39.30;;;;;;4978801;28;20231;-63
2022/12/08 00:34:03;;;;;;;2.27;2.10;;;19.20;39.30;;;;;;4975731;28;20424;-63
2022/12/08 00:36:29;;;;;;;2.63;2.43;;;19.20;39.50;;;;;;4978632;28;20254;-63
2022/12/08 00:38:55;;;;;;;2.33;2.23;;;19.10;39.30;;;;;;4978629;28;20570;-63
2022/12/08 00:44:10;;;;;;;2.40;2.27;;;19.20;39.30;;;;;;4979787;28;20223;-64
2022/12/08 00:46:36;;;;;;;2.17;2.07;;;19.20;39.40;;;;;;4986854;28;20959;-63
2022/12/08 00:49:02;;;;;;;2.40;2.00;;;19.20;39.40;;;;;;4991865;28;20460;-63
2022/12/08 00:51:28;;;;;;;2.37;2.17;;;19.20;39.30;;;;;;4980922;28;20335;-63
2022/12/08 00:53:53;;;;;;;1.97;1.80;;;19.20;39.30;;;;;;4986238;28;20971;-63
2022/12/08 00:56:19;;;;;;;2.23;2.13;;;19.20;39.40;;;;;;4981800;28;20274;-62
2022/12/08 00:58:44;;;;;;;2.27;2.17;;;19.20;39.40;;;;;;4981953;28;20220;-63
2022/12/08 01:01:11;;;;;;;2.00;1.90;;;19.20;39.40;;;;;;4978330;28;20223;-63
2022/12/08 01:03:37;;;;;;;2.00;1.90;;;19.20;39.50;;;;;;4983958;28;20355;-63
2022/12/08 01:06:03;;;;;;;2.13;2.03;;;19.20;39.50;;;;;;4978466;28;20474;-63
2022/12/08 01:08:29;;;;;;;2.27;2.17;;;19.20;39.50;;;;;;4980973;28;20257;-63
2022/12/08 01:10:54;;;;;;;2.27;2.17;;;19.20;39.50;;;;;;4983627;28;20460;-63
2022/12/08 01:13:20;;;;;;;2.07;1.97;;;19.20;39.40;;;;;;4981460;28;20224;-63
2022/12/08 01:15:47;;;;;;;2.07;1.97;;;19.10;39.30;;;;;;4980618;28;20704;-63
2022/12/08 01:18:12;;;;;;;2.00;1.90;;;19.20;39.40;;;;;;4984301;28;20242;-63
2022/12/08 01:20:38;;;;;;;2.03;1.90;;;19.20;39.30;;;;;;4982751;28;20912;-63
2022/12/08 01:23:03;;;;;;;2.23;1.97;;;19.20;39.50;;;;;;4983182;28;20223;-63
2022/12/08 01:25:29;;;;;;;1.97;1.80;;;19.20;39.30;;;;;;4995924;28;20238;-62
2022/12/08 01:27:54;;;;;;;2.00;1.90;;;19.20;39.40;;;;;;5001872;28;20238;-62
2022/12/08 01:30:20;;;;;;;2.10;2.00;;;19.20;39.40;;;;;;4995095;28;20234;-63
2022/12/08 01:32:46;;;;;;;1.70;1.60;;;19.20;39.40;;;;;;5000037;28;20321;-63
2022/12/08 01:35:12;;;;;;;2.00;1.90;;;19.20;39.40;;;;;;4989935;28;20217;-63
2022/12/08 01:37:38;;;;;;;1.80;1.70;;;19.20;39.40;;;;;;4978848;28;20310;-63
2022/12/08 01:40:05;;;;;;;2.23;2.13;;;19.20;39.40;;;;;;4989036;28;20459;-63
2022/12/08 01:42:33;;;;;;;2.63;2.43;;;19.20;39.40;;;;;;4980340;28;20216;-63
2022/12/08 01:45:01;;;;;;;2.17;1.97;;;19.20;39.40;;;;;;4988143;28;20442;-62
2022/12/08 01:47:36;;;;;;;2.00;1.90;;;19.20;39.30;;;;;;4995819;28;20931;-63
2022/12/08 01:50:04;;;;;;;1.93;1.83;;;19.20;39.40;;;;;;4994472;28;20457;-63
2022/12/08 01:53:15;;;;;;;2.40;2.30;;;19.10;39.30;;;;;;4995785;28;21160;-63
2022/12/08 01:55:46;;;;;;;4.63;3.13;;;19.20;39.40;;;;;;4929455;28;20942;-63
2022/12/08 01:58:20;;;;;;;2.10;2.00;;;19.10;39.40;;;;;;4987796;28;20977;-63
2022/12/08 02:00:47;;;;;;;2.27;2.07;;;19.20;39.50;;;;;;4996646;28;20829;-63
2022/12/08 02:03:23;;;;;;;2.30;2.10;;;19.20;39.50;;;;;;4993222;28;20444;-65
2022/12/08 02:05:48;;;;;;;2.20;2.03;;;19.20;39.50;;;;;;4993797;28;21157;-64
2022/12/08 02:08:14;;;;;;;2.00;1.90;;;19.20;39.40;;;;;;4990708;28;20439;-63
2022/12/08 02:10:41;;;;;;;2.33;2.13;;;19.20;39.50;;;;;;4995486;28;20249;-62
2022/12/08 02:13:15;;;;;;;1.90;1.80;;;19.10;39.30;;;;;;4981751;28;20268;-64
2022/12/08 02:16:10;;;;;;;1.80;1.70;;;19.20;39.40;;;;;;4991589;28;20912;-63
2022/12/08 02:18:41;;;;;;;1.90;1.80;;;19.20;39.40;;;;;;4994100;28;21371;-63
2022/12/08 02:21:29;;;;;;;2.20;2.00;;;19.10;39.40;;;;;;5006886;28;21185;-63
2022/12/08 02:24:04;;;;;;;2.80;2.60;;;19.10;39.40;;;;;;4988028;28;20533;-62
2022/12/08 02:26:57;;;;;;;1.87;1.77;;;19.10;39.30;;;;;;4985205;28;20454;-63
2022/12/08 02:29:45;;;;;;;1.70;1.60;;;19.10;39.40;;;;;;4998549;28;20481;-63
2022/12/08 02:32:45;;;;;;;1.90;1.80;;;19.10;39.30;;;;;;5000218;28;20447;-63
2022/12/08 02:35:25;;;;;;;1.90;1.80;;;19.10;39.40;;;;;;4985787;28;20488;-63
2022/12/08 02:38:14;;;;;;;2.00;1.90;;;19.10;39.30;;;;;;4998195;28;20547;-63
2022/12/08 02:41:02;;;;;;;1.80;1.70;;;19.10;39.30;;;;;;4998331;28;20459;-63
2022/12/08 02:43:37;;;;;;;2.03;1.93;;;19.10;39.30;;;;;;4980432;28;20474;-63
2022/12/08 02:46:09;;;;;;;2.00;1.90;;;19.10;39.30;;;;;;4977606;28;20433;-63
2022/12/08 02:48:35;;;;;;;1.90;1.80;;;19.10;39.40;;;;;;4976742;28;20443;-63
2022/12/08 02:51:01;;;;;;;1.90;1.80;;;19.10;39.40;;;;;;4977687;28;20702;-63
2022/12/08 02:53:30;;;;;;;1.90;1.80;;;19.10;39.30;;;;;;4976212;28;20252;-63
2022/12/08 02:56:02;;;;;;;1.60;1.50;;;19.10;39.40;;;;;;4975970;28;20263;-63
2022/12/08 02:58:48;;;;;;;1.80;1.70;;;19.10;39.40;;;;;;4982008;28;20501;-63
2022/12/08 03:01:32;;;;;;;1.73;1.63;;;19.10;39.30;;;;;;4999178;28;20446;-63
2022/12/08 03:04:30;;;;;;;1.70;1.60;;;19.10;39.30;;;;;;4987096;28;20492;-63
2022/12/08 03:07:07;;;;;;;1.73;1.63;;;19.10;39.30;;;;;;4990047;28;20463;-63
2022/12/08 03:09:40;;;;;;;1.80;1.70;;;19.10;39.40;;;;;;4982915;28;20539;-63
2022/12/08 03:12:38;;;;;;;1.90;1.80;;;19.10;39.30;;;;;;4988834;28;20482;-62
2022/12/08 03:15:10;;;;;;;2.00;1.90;;;19.10;39.30;;;;;;4992759;28;20837;-63
2022/12/08 03:17:39;;;;;;;1.90;1.80;;;19.10;39.40;;;;;;4974248;28;20510;-63
2022/12/08 03:20:10;;;;;;;1.80;1.70;;;19.10;39.40;;;;;;4981795;28;20476;-62
2022/12/08 03:22:38;;;;;;;1.90;1.80;;;19.10;39.40;;;;;;4978062;28;20432;-63
2022/12/08 03:25:05;;;;;;;1.90;1.80;;;19.10;39.30;;;;;;4974817;28;20426;-63
2022/12/08 03:27:30;;;;;;;1.70;1.50;;;19.10;39.30;;;;;;4982063;28;20437;-63
2022/12/08 03:29:58;;;;;;;1.83;1.73;;;19.10;39.30;;;;;;4985651;28;20490;-63
2022/12/08 03:32:49;;;;;;;1.83;1.73;;;19.10;39.40;;;;;;4984846;28;20227;-62
2022/12/08 03:35:26;;;;;;;1.70;1.60;;;19.10;39.30;;;;;;5000930;28;20435;-63
2022/12/08 03:38:00;;;;;;;1.60;1.50;;;19.10;39.40;;;;;;4986554;28;20443;-63
2022/12/08 03:40:25;;;;;;;2.10;1.90;;;19.10;39.30;;;;;;4986378;28;20502;-63
2022/12/08 03:42:51;;;;;;;2.03;1.93;;;19.10;39.30;;;;;;4996399;28;20940;-63
2022/12/08 03:45:16;;;;;;;1.63;1.53;;;19.10;39.30;;;;;;4981084;28;20250;-64
2022/12/08 03:47:42;;;;;;;1.93;1.83;;;19.10;39.40;;;;;;4995044;28;20235;-63
2022/12/08 03:50:08;;;;;;;2.00;1.80;;;19.10;39.30;;;;;;4999939;28;20219;-63
2022/12/08 03:52:33;;;;;;;1.70;1.60;;;19.10;39.30;;;;;;4989146;28;20307;-63
2022/12/08 03:54:59;;;;;;;1.53;1.43;;;19.10;39.30;;;;;;4985803;28;20247;-63
2022/12/08 03:57:24;;;;;;;1.53;1.43;;;19.10;39.30;;;;;;4973700;28;20232;-63
2022/12/08 03:59:50;;;;;;;1.70;1.60;;;19.10;39.30;;;;;;4983721;28;20224;-63
2022/12/08 04:02:15;;;;;;;1.70;1.60;;;19.10;39.30;;;;;;4979971;28;20969;-65
2022/12/08 04:04:41;;;;;;;1.77;1.67;;;19.10;39.30;;;;;;5000690;28;20216;-63
2022/12/08 04:07:07;;;;;;;1.60;1.50;;;19.10;39.30;;;;;;4976124;28;20278;-63
2022/12/08 04:09:32;;;;;;;1.90;1.80;;;19.10;39.30;;;;;;4981292;28;20461;-63
2022/12/08 04:11:58;;;;;;;1.60;1.50;;;19.10;39.30;;;;;;4993707;28;20616;-62
2022/12/08 04:14:23;;;;;;;1.60;1.50;;;19.10;39.20;;;;;;4988481;28;20231;-63
2022/12/08 04:16:49;;;;;;;1.60;1.50;;;19.10;39.30;;;;;;4980911;28;20231;-63
2022/12/08 04:19:14;;;;;;;1.83;1.73;;;19.10;39.30;;;;;;4979956;28;20278;-63
2022/12/08 04:21:40;;;;;;;1.60;1.50;;;19.10;39.30;;;;;;4982368;28;20312;-63
2022/12/08 04:24:06;;;;;;;1.70;1.60;;;19.10;39.30;;;;;;4983099;28;20221;-63
2022/12/08 04:26:31;;;;;;;1.80;1.70;;;19.10;39.30;;;;;;4988255;28;20630;-63
2022/12/08 04:28:57;;;;;;;1.90;1.43;;;19.10;39.20;;;;;;4980491;28;20237;-62
2022/12/08 04:31:22;;;;;;;1.70;1.60;;;19.10;39.30;;;;;;4993527;28;20820;-63
2022/12/08 04:33:48;;;;;;;1.73;1.63;;;19.10;39.20;;;;;;4986792;28;20212;-63
2022/12/08 04:36:13;;;;;;;1.57;1.47;;;19.10;39.20;;;;;;4978876;28;20221;-62
2022/12/08 04:38:39;;;;;;;1.83;1.60;;;19.10;39.20;;;;;;4978311;28;20749;-63
2022/12/08 04:41:05;;;;;;;1.50;1.40;;;19.10;39.20;;;;;;4978945;28;20571;-63
2022/12/08 04:43:30;;;;;;;1.50;1.40;;;19.10;39.30;;;;;;4976607;28;20220;-63
2022/12/08 04:45:56;;;;;;;1.50;1.40;;;19.10;39.20;;;;;;4979810;28;20689;-63
2022/12/08 04:48:21;;;;;;;1.70;1.53;;;19.10;39.20;;;;;;4985878;28;20677;-63
2022/12/08 04:50:47;;;;;;;1.70;1.60;;;19.10;39.20;;;;;;4982511;28;20589;-63
2022/12/08 04:53:13;;;;;;;1.60;1.50;;;19.10;39.20;;;;;;4980069;28;20254;-63
2022/12/08 04:55:40;;;;;;;1.40;1.30;;;19.10;39.20;;;;;;4981223;28;20228;-63
2022/12/08 04:58:06;;;;;;;1.60;1.50;;;19.10;39.20;;;;;;4984708;28;20223;-63
2022/12/08 05:00:31;;;;;;;1.57;1.47;;;19.10;39.10;;;;;;4974256;28;20474;-63
2022/12/08 05:02:57;;;;;;;1.50;1.40;;;19.20;39.20;;;;;;4978139;28;20343;-63
2022/12/08 05:05:23;;;;;;;1.77;1.67;;;19.10;39.10;;;;;;4978554;28;20212;-63
2022/12/08 05:07:48;;;;;;;1.90;1.80;;;19.20;39.10;;;;;;4982314;28;20228;-64
2022/12/08 05:10:14;;;;;;;2.00;1.37;;;19.20;39.10;;;;;;4981711;28;20239;-64
2022/12/08 05:12:39;;;;;;;1.33;1.23;;;19.20;39.10;;;;;;4988851;28;20247;-64
2022/12/08 05:15:05;;;;;;;1.40;1.30;;;19.20;39.00;;;;;;4999530;28;20219;-63
2022/12/08 05:17:31;;;;;;;1.60;1.50;;;19.20;38.90;;;;;;4984244;28;20783;-63
2022/12/08 05:19:57;;;;;;;1.50;1.40;;;19.20;38.80;;;;;;4983490;28;20434;-64
2022/12/08 05:22:22;;;;;;;1.60;1.50;;;19.30;38.80;;;;;;4977139;28;20339;-64
2022/12/08 05:24:48;;;;;;;1.60;1.50;;;19.30;38.70;;;;;;4990112;28;20222;-64
2022/12/08 05:27:13;;;;;;;1.80;1.70;;;19.30;38.70;;;;;;4990204;28;20224;-63
2022/12/08 05:29:39;;;;;;;1.50;1.40;;;19.30;38.70;;;;;;4980015;28;20220;-63
2022/12/08 05:32:05;;;;;;;2.37;1.40;;;19.30;38.60;;;;;;4969822;28;20286;-64
2022/12/08 05:34:30;;;;;;;1.70;1.60;;;19.30;38.60;;;;;;4974198;28;20228;-66
2022/12/08 05:36:56;;;;;;;1.40;1.30;;;19.30;38.60;;;;;;4976198;28;20494;-64
2022/12/08 05:39:21;;;;;;;1.50;1.40;;;19.30;38.60;;;;;;4978496;28;20208;-65
2022/12/08 05:41:47;;;;;;;1.87;1.77;;;19.30;38.60;;;;;;4979864;28;20675;-66
2022/12/08 05:44:12;;;;;;;1.80;1.70;;;19.30;38.60;;;;;;4985527;28;20216;-65
2022/12/08 05:46:38;;;;;;;1.53;1.43;;;19.30;38.60;;;;;;4982597;28;20703;-65
2022/12/08 05:49:03;;;;;;;1.53;1.43;;;19.30;38.60;;;;;;4973556;28;20243;-65
2022/12/08 05:51:29;;;;;;;1.60;1.50;;;19.30;38.60;;;;;;4956420;28;20224;-66
2022/12/08 05:53:56;;;;;;;1.70;1.60;;;19.30;38.70;;;;;;4964413;28;20218;-65
2022/12/08 05:56:22;;;;;;;1.53;1.43;;;19.30;38.70;;;;;;4998143;28;20286;-65
2022/12/08 05:58:48;;;;;;;1.60;1.50;;;19.30;38.70;;;;;;4993322;28;20418;-65
2022/12/08 06:01:27;;;;;;;1.90;1.80;;;19.30;38.70;;;;;;4987094;28;21553;-65
2022/12/08 06:03:53;;;;;;;1.70;1.60;;;19.30;38.60;;;;;;4978949;28;20939;-65
2022/12/08 06:06:19;;;;;;;1.70;1.60;;;19.30;38.70;;;;;;4983248;28;21180;-63
2022/12/08 06:08:45;;;;;;;1.70;1.60;;;19.30;38.70;;;;;;4978596;28;20473;-64
2022/12/08 06:11:20;;;;;;;2.40;1.90;;;19.30;38.70;;;;;;4969267;28;20608;-65
2022/12/08 06:13:47;;;;;;;1.83;1.73;;;19.30;38.70;;;;;;4989600;28;20231;-66
2022/12/08 06:16:12;;;;;;;1.73;1.40;;;19.30;38.80;;;;;;4991173;28;20472;-62
2022/12/08 06:18:38;;;;;;;2.00;1.90;;;19.30;38.90;;;;;;4996179;28;20424;-63
2022/12/08 06:21:09;;;;;;;1.70;1.60;;;19.30;38.90;;;;;;4986796;28;20759;-65
2022/12/08 06:23:35;;;;;;;2.77;1.97;;;19.30;38.90;;;;;;4989234;28;20215;-65
2022/12/08 06:26:03;;;;;;;2.10;1.93;;;19.30;38.90;;;;;;4992407;28;20433;-64
2022/12/08 06:28:30;;;;;;;4.90;2.77;;;19.30;38.90;;;;;;4994987;28;20451;-64
2022/12/08 06:30:57;;;;;;;3.40;1.77;;;19.30;38.70;;;;;;5002565;28;20476;-65
2022/12/08 06:33:23;;;;;;;3.47;3.17;;;19.30;38.70;;;;;;4996219;28;20450;-64
2022/12/08 06:35:49;;;;;;;2.13;1.60;;;19.30;38.60;;;;;;4998386;28;20439;-65
2022/12/08 06:38:14;;;;;;;1.80;1.70;;;19.30;38.60;;;;;;4999403;28;20455;-64
2022/12/08 06:40:40;;;;;;;2.27;1.77;;;19.30;38.60;;;;;;5000279;28;20250;-64
2022/12/08 06:43:05;;;;;;;4.00;1.97;;;19.30;38.80;;;;;;4996957;28;20347;-64
2022/12/08 06:45:31;;;;;;;1.70;1.60;;;19.30;38.80;;;;;;4996311;28;20659;-64
2022/12/08 06:47:56;;;;;;;1.70;1.60;;;19.30;38.90;;;;;;4997398;28;20243;-64
2022/12/08 06:50:22;;;;;;;3.47;1.93;;;19.30;39.00;;;;;;4997798;28;20239;-64
2022/12/08 06:52:47;;;;;;;1.97;1.87;;;19.30;38.90;;;;;;5001858;28;20686;-65
2022/12/08 06:55:13;;;;;;;2.33;2.00;;;19.30;38.90;;;;;;5002563;28;20226;-64
2022/12/08 06:57:39;;;;;;;1.90;1.80;;;19.30;38.90;;;;;;4998150;28;20224;-63
2022/12/08 07:00:05;;;;;;;2.23;1.60;;;19.30;39.00;;;;;;4997672;28;20221;-64
2022/12/08 07:02:32;;;;;;;1.60;1.50;;;19.30;39.00;;;;;;4990655;28;20217;-64
2022/12/08 07:04:57;;;;;;;1.80;1.70;;;19.30;39.00;;;;;;4980231;28;20461;-64
2022/12/08 07:07:23;;;;;;;11.30;1.83;;;19.30;39.00;;;;;;4980618;28;20463;-64
2022/12/08 07:09:48;;;;;;;1.90;1.80;;;19.30;39.00;;;;;;4985216;28;20246;-65
2022/12/08 07:12:14;;;;;;;2.13;2.03;;;19.30;39.00;;;;;;4983497;28;20268;-64
2022/12/08 07:14:39;;;;;;;1.90;1.80;;;19.30;39.00;;;;;;5000140;28;20223;-64
2022/12/08 07:17:05;;;;;;;1.93;1.80;;;19.30;38.90;;;;;;4998997;28;20218;-64
2022/12/08 07:19:31;;;;;;;2.23;2.13;;;19.30;39.00;;;;;;4998000;28;20582;-64
2022/12/08 07:21:57;;;;;;;1.80;1.70;;;19.30;39.00;;;;;;4998923;28;20219;-64
2022/12/08 07:24:22;;;;;;;2.70;1.93;;;19.30;39.10;;;;;;5002044;28;20461;-64
2022/12/08 07:26:48;;;;;;;1.70;1.60;;;19.30;39.00;;;;;;5002955;28;20297;-65
2022/12/08 07:29:13;;;;;;;1.67;1.57;;;19.30;39.00;;;;;;5000697;28;20219;-64
2022/12/08 07:31:39;;;;;;;2.00;1.90;;;19.30;39.00;;;;;;5007713;28;20242;-64
2022/12/08 07:34:04;;;;;;;2.47;1.93;;;19.30;39.00;;;;;;5005169;28;20246;-64
2022/12/08 07:36:31;;;;;;;2.07;1.97;;;19.30;39.10;;;;;;5001669;28;20600;-64
2022/12/08 07:38:57;;;;;;;2.13;2.03;;;19.30;39.00;;;;;;5000879;28;20230;-64
2022/12/08 07:41:24;;;;;;;1.93;1.83;;;19.30;39.00;;;;;;5001236;28;20755;-64
2022/12/08 07:43:52;;;;;;;1.90;1.80;;;19.20;38.90;;;;;;4994710;28;20738;-65
2022/12/08 07:46:19;;;;;;;1.73;1.63;;;19.30;38.90;;;;;;4977257;28;20467;-63
2022/12/08 07:48:45;;;;;;;1.70;1.60;;;19.30;39.00;;;;;;4981242;28;20428;-64
2022/12/08 07:51:13;;;;;;;1.80;1.70;;;19.30;39.00;;;;;;5001472;28;20482;-63
2022/12/08 07:53:40;;;;;;;1.70;1.60;;;19.30;39.00;;;;;;5002299;28;20245;-64
2022/12/08 07:56:07;;;;;;;1.67;1.57;;;19.30;39.00;;;;;;5001671;28;20510;-64
2022/12/08 07:58:32;;;;;;;1.73;1.63;;;19.30;39.00;;;;;;5004693;28;21036;-64
2022/12/08 08:00:58;;;;;;;2.23;2.03;;;19.30;39.00;;;;;;4981553;28;20432;-64
2022/12/08 08:03:23;;;;;;;1.80;1.70;;;19.30;38.90;;;;;;4990638;28;20224;-64
2022/12/08 08:05:49;;;;;;;2.00;1.90;;;19.30;38.90;;;;;;4981522;28;20223;-63
2022/12/08 08:08:16;;;;;;;2.67;2.47;;;19.30;38.90;;;;;;4981276;28;20229;-64
2022/12/08 08:10:41;;;;;;;1.80;1.70;;;19.30;39.00;;;;;;5006014;28;20223;-64
2022/12/08 08:13:07;;;;;;;1.60;1.50;;;19.20;38.80;;;;;;4998268;28;20456;-64
2022/12/08 08:15:33;;;;;;;1.60;1.50;;;19.30;39.00;;;;;;5001805;28;20223;-64
2022/12/08 08:17:58;;;;;;;1.70;1.60;;;19.30;39.00;;;;;;4997209;28;20223;-65
2022/12/08 08:20:24;;;;;;;1.80;1.70;;;19.20;38.90;;;;;;4984059;28;20216;-64
2022/12/08 08:22:50;;;;;;;2.07;1.97;;;19.20;38.90;;;;;;4985229;28;20221;-63
2022/12/08 08:25:18;;;;;;;2.00;1.90;;;19.20;38.90;;;;;;4977251;28;20220;-65
2022/12/08 08:27:44;;;;;;;1.80;1.70;;;19.20;38.80;;;;;;4989590;28;20449;-63
2022/12/08 08:30:12;;;;;;;2.00;1.90;;;19.20;38.90;;;;;;4998144;28;20845;-63
2022/12/08 08:32:38;;;;;;;1.80;1.70;;;19.20;38.90;;;;;;5003196;28;20434;-64
2022/12/08 08:35:04;;;;;;;1.90;1.80;;;19.20;38.90;;;;;;5002227;28;20427;-63
2022/12/08 08:37:29;;;;;;;1.80;1.70;;;19.20;38.90;;;;;;5003655;28;20223;-64
2022/12/08 08:39:55;;;;;;;2.13;2.03;;;19.20;38.90;;;;;;5000623;28;20221;-64
2022/12/08 08:42:21;;;;;;;2.13;1.87;;;19.20;38.90;;;;;;4984258;28;20209;-65
2022/12/08 08:44:46;;;;;;;1.80;1.70;;;19.20;38.80;;;;;;4983144;28;20228;-64
2022/12/08 08:47:12;;;;;;;2.00;1.90;;;19.20;38.90;;;;;;4984957;28;20251;-63
2022/12/08 08:49:37;;;;;;;1.80;1.70;;;19.20;39.00;;;;;;4984155;28;20235;-64
2022/12/08 08:52:04;;;;;;;1.80;1.70;;;19.30;39.00;;;;;;4984774;28;20220;-64
2022/12/08 08:54:30;;;;;;;1.90;1.80;;;19.20;38.90;;;;;;4981633;28;20694;-65
2022/12/08 08:56:57;;;;;;;1.90;1.80;;;19.20;38.90;;;;;;4977941;28;20443;-64
2022/12/08 08:59:23;;;;;;;1.90;1.80;;;19.20;38.90;;;;;;4989578;28;20436;-65
2022/12/08 09:01:48;;;;;;;2.43;1.70;;;19.20;38.90;;;;;;4981019;28;20449;-64
2022/12/08 09:04:14;;;;;;;1.83;1.73;;;19.20;38.90;;;;;;4980399;28;20434;-64
2022/12/08 09:06:41;;;;;;;1.90;1.80;;;19.20;38.80;;;;;;4988907;28;20238;-64
2022/12/08 09:09:07;;;;;;;1.90;1.80;;;19.20;38.80;;;;;;4981314;28;20248;-64
2022/12/08 09:11:32;;;;;;;1.97;1.87;;;19.20;38.80;;;;;;4985430;28;20551;-64
2022/12/08 09:13:58;;;;;;;2.13;2.03;;;19.20;38.80;;;;;;4981623;28;20205;-64
2022/12/08 09:16:23;;;;;;;2.00;1.80;;;19.20;38.90;;;;;;4991668;28;20703;-65
2022/12/08 09:18:50;;;;;;;2.00;1.80;;;19.20;38.80;;;;;;4982303;28;20348;-65
2022/12/08 09:21:21;;;;;;;2.00;1.90;;;19.20;38.90;;;;;;5002481;28;22575;-64
2022/12/08 09:23:52;;;;;;;1.93;1.83;;;19.20;38.90;;;;;;5003159;28;20457;-65
2022/12/08 09:26:21;;;;;;;1.80;1.70;;;19.20;39.00;;;;;;4999950;28;20431;-64
2022/12/08 09:28:48;;;;;;;2.33;2.17;;;19.20;39.00;;;;;;5001394;28;20436;-65
2022/12/08 09:31:15;;;;;;;2.00;1.90;;;19.20;38.90;;;;;;4998957;28;20450;-64
2022/12/08 09:33:41;;;;;;;1.67;1.57;;;19.20;38.90;;;;;;4999431;28;20430;-64
2022/12/08 09:36:07;;;;;;;2.10;2.00;;;19.20;38.90;;;;;;4999890;28;20420;-64
2022/12/08 09:38:33;;;;;;;1.77;1.67;;;19.20;38.90;;;;;;4998975;28;20665;-64
2022/12/08 09:41:01;;;;;;;1.80;1.70;;;19.20;38.90;;;;;;4997487;28;20428;-64
2022/12/08 09:44:18;;;;;;;2.10;2.00;;;19.20;38.90;;;;;;5002227;28;20437;-64
2022/12/08 09:46:47;;;;;;;2.00;1.90;;;19.20;38.90;;;;;;4981257;28;20491;-64
2022/12/08 09:49:16;;;;;;;1.80;1.70;;;19.20;38.80;;;;;;4979044;28;20508;-63
2022/12/08 09:51:44;;;;;;;2.03;1.70;;;19.20;38.90;;;;;;4988238;28;20883;-63
2022/12/08 09:54:18;;;;;;;2.07;1.97;;;19.20;38.90;;;;;;4995901;28;20427;-64
2022/12/08 09:56:44;;;;;;;2.07;1.90;;;19.20;38.90;;;;;;4986428;28;20529;-63
2022/12/08 09:59:26;;;;;;;1.70;1.60;;;19.20;38.90;;;;;;4987262;28;20503;-63
2022/12/08 10:01:53;;;;;;;1.90;1.80;;;19.20;38.90;;;;;;4984653;28;20677;-64
2022/12/08 10:04:32;;;;;;;3.33;1.60;;;19.20;38.90;;;;;;4985790;28;20420;-65
2022/12/08 10:07:06;;;;;;;1.97;1.87;;;19.20;38.90;;;;;;4985172;28;20993;-63
2022/12/08 10:09:38;;;;;;;1.73;1.63;;;19.20;38.90;;;;;;4979858;28;20565;-64
2022/12/08 10:12:32;;;;;;;1.60;1.50;;;19.10;38.70;;;;;;4978450;28;20448;-64
2022/12/08 10:15:13;;;;;;;1.90;1.80;;;19.20;38.90;;;;;;5002247;28;20460;-63
2022/12/08 10:17:49;;;;;;;1.90;1.80;;;19.20;38.90;;;;;;5004786;28;20766;-64
2022/12/08 10:20:18;;;;;;;2.10;2.00;;;19.20;38.90;;;;;;5003223;28;20891;-64
2022/12/08 10:22:48;;;;;;;1.90;1.80;;;19.20;38.90;;;;;;4991122;28;20615;-64
2022/12/08 10:25:21;;;;;;;1.70;1.60;;;19.20;38.80;;;;;;4982595;28;20436;-64
2022/12/08 10:27:50;;;;;;;1.80;1.70;;;19.20;38.90;;;;;;4979364;28;20432;-65
2022/12/08 10:30:18;;;;;;;1.67;1.57;;;19.20;38.90;;;;;;4980488;28;20526;-64
2022/12/08 10:32:46;;;;;;;1.80;1.70;;;19.10;38.70;;;;;;4981090;28;20447;-64
2022/12/08 10:35:15;;;;;;;1.63;1.50;;;19.20;38.80;;;;;;4990911;28;20546;-64
2022/12/08 10:37:53;;;;;;;2.07;1.97;;;19.20;38.80;;;;;;4986091;28;21226;-64
2022/12/08 10:40:19;;;;;;;1.80;1.70;;;19.20;38.80;;;;;;4981857;28;20516;-64
2022/12/08 10:42:55;;;;;;;1.70;1.60;;;19.20;38.90;;;;;;4979805;28;20504;-64
2022/12/08 10:45:25;;;;;;;1.60;1.50;;;19.10;38.70;;;;;;4988374;28;20220;-64
2022/12/08 10:48:17;;;;;;;1.70;1.60;;;19.20;38.80;;;;;;5001127;28;20461;-64
2022/12/08 10:50:51;;;;;;;1.60;1.50;;;19.20;38.80;;;;;;4998292;28;20454;-64
2022/12/08 10:53:26;;;;;;;1.70;1.60;;;19.10;38.70;;;;;;4998635;28;20427;-65
2022/12/08 10:56:02;;;;;;;1.60;1.50;;;19.20;38.80;;;;;;5001424;28;20433;-64
2022/12/08 10:59:13;;;;;;;3.00;1.80;;;19.10;38.70;;;;;;4989599;28;20472;-63
2022/12/08 11:01:40;;;;;;;1.60;1.50;;;19.20;38.90;;;;;;4995093;28;20439;-64
2022/12/08 11:04:22;;;;;;;1.83;1.73;;;19.10;39.60;;;;;;4997251;28;20476;-63
2022/12/08 11:06:49;;;;;;;1.60;1.50;;;19.20;38.90;;;;;;4983258;28;20454;-64
2022/12/08 11:09:14;;;;;;;1.40;1.30;;;19.20;38.90;;;;;;4978637;28;20792;-64
2022/12/08 11:11:58;;;;;;;1.53;1.43;;;19.20;38.90;;;;;;4978848;28;20464;-63
2022/12/08 11:14:29;;;;;;;1.60;1.50;;;19.20;38.80;;;;;;4997276;28;20239;-64
2022/12/08 11:17:21;;;;;;;1.80;1.70;;;19.20;38.90;;;;;;5000687;28;20528;-64
2022/12/08 11:19:56;;;;;;;1.77;1.67;;;19.20;38.90;;;;;;4998511;28;20440;-64
2022/12/08 11:22:31;;;;;;;1.50;1.40;;;19.20;39.00;;;;;;4987435;28;20424;-64
2022/12/08 11:25:02;;;;;;;1.60;1.50;;;19.10;38.80;;;;;;4978726;28;20546;-64
2022/12/08 11:27:28;;;;;;;1.53;1.43;;;19.20;38.90;;;;;;4982505;28;20432;-64
2022/12/08 11:29:55;;;;;;;1.60;1.50;;;19.10;38.70;;;;;;5000957;28;21081;-64
2022/12/08 11:32:21;;;;;;;1.80;1.70;;;19.10;38.80;;;;;;4998647;28;20938;-64
2022/12/08 11:34:52;;;;;;;1.80;1.70;;;19.20;38.90;;;;;;5000790;28;20441;-65
2022/12/08 11:37:25;;;;;;;1.70;1.60;;;19.20;38.90;;;;;;5000362;28;20499;-64
2022/12/08 11:39:54;;;;;;;1.60;1.50;;;19.20;38.90;;;;;;5001242;28;20478;-64
2022/12/08 11:42:23;;;;;;;1.40;1.30;;;19.10;38.80;;;;;;4995012;28;20993;-64
2022/12/08 11:45:01;;;;;;;2.07;1.60;;;19.20;38.80;;;;;;4996399;28;20987;-64
2022/12/08 11:47:41;;;;;;;1.50;1.40;;;19.20;38.90;;;;;;4994945;28;20967;-64
2022/12/08 11:50:28;;;;;;;1.60;1.50;;;19.10;38.80;;;;;;4994725;28;20420;-64
2022/12/08 11:52:57;;;;;;;1.40;1.30;;;19.20;38.90;;;;;;4986604;28;20431;-64
2022/12/08 11:55:25;;;;;;;1.50;1.40;;;19.20;38.90;;;;;;4983780;28;20441;-64
2022/12/08 11:57:53;;;;;;;1.50;1.40;;;19.20;38.90;;;;;;4992259;28;20462;-65
2022/12/08 12:00:19;;;;;;;1.77;1.67;;;19.20;38.80;;;;;;4983955;28;20435;-64
2022/12/08 12:02:50;;;;;;;1.90;1.80;;;19.20;38.90;;;;;;4979646;28;20440;-64
2022/12/08 12:05:48;;;;;;;1.80;1.70;;;19.10;38.80;;;;;;5002673;28;20282;-65
2022/12/08 12:08:47;;;;;;;1.40;1.30;;;19.20;38.80;;;;;;5002990;28;20506;-64
2022/12/08 12:14:48;;;;;;;1.50;1.40;;;19.10;38.70;;;;;;4996631;28;20443;-64
2022/12/08 12:17:51;;;;;;;1.80;1.70;;;19.20;38.80;;;;;;4997779;28;20426;-64
2022/12/08 12:20:41;;;;;;;1.63;1.53;;;19.20;38.80;;;;;;4992430;28;20445;-65
2022/12/08 12:23:41;;;;;;;1.40;1.30;;;19.10;38.70;;;;;;5005180;28;20505;-64
2022/12/08 12:26:15;;;;;;;1.50;1.40;;;19.20;38.80;;;;;;4982602;28;20481;-64
2022/12/08 12:28:48;;;;;;;1.73;1.60;;;19.20;38.80;;;;;;4979918;28;22194;-64
2022/12/08 12:31:17;;;;;;;1.57;1.47;;;19.20;38.80;;;;;;5001348;28;20894;-64
2022/12/08 12:33:45;;;;;;;1.63;1.53;;;19.20;38.80;;;;;;4983784;28;20516;-64
2022/12/08 12:36:11;;;;;;;1.57;1.47;;;19.20;38.80;;;;;;4981058;28;20417;-64
2022/12/08 12:41:46;;;;;;;1.40;1.30;;;19.10;38.60;;;;;;5000505;28;21049;-64
2022/12/08 12:44:11;;;;;;;1.57;1.47;;;19.20;38.70;;;;;;4993716;28;20460;-64
2022/12/08 12:46:45;;;;;;;1.50;1.40;;;19.20;38.80;;;;;;5001807;28;20496;-64
2022/12/08 12:49:38;;;;;;;1.60;1.50;;;19.10;38.60;;;;;;4999253;28;20704;-64
2022/12/08 12:52:29;;;;;;;1.50;1.40;;;19.20;38.60;;;;;;5002196;28;20482;-64
2022/12/08 12:54:58;;;;;;;1.50;1.40;;;19.20;38.70;;;;;;4982322;28;20428;-64
2022/12/08 12:57:34;;;;;;;1.40;1.30;;;19.20;38.60;;;;;;4980298;28;20428;-64
2022/12/08 13:00:07;;;;;;;1.90;1.80;;;19.20;38.70;;;;;;4995086;28;20442;-64
2022/12/08 13:02:44;;;;;;;1.47;1.37;;;19.20;38.70;;;;;;5001753;28;20565;-64
2022/12/08 13:05:25;;;;;;;1.50;1.40;;;19.20;38.70;;;;;;5001522;28;20415;-64
2022/12/08 13:07:59;;;;;;;1.40;1.30;;;19.20;38.70;;;;;;5000274;28;20477;-65
2022/12/08 13:10:28;;;;;;;1.40;1.30;;;19.10;38.50;;;;;;5002397;28;20952;-64
2022/12/08 13:13:08;;;;;;;1.50;1.40;;;19.20;38.70;;;;;;5002275;28;20558;-64
2022/12/08 13:15:40;;;;;;;1.47;1.37;;;19.20;38.60;;;;;;4999034;28;20557;-64